Selenka — 9HVO9 — position and weather

sailwx.info

Track history (hours):
 
Tides and Currents Weather Stations Pressure Air Temp Water Temp Dewpoint Dewpoint Depression Visibility Wind Speed Wind Dir Waves Ship Positions

Selenka

Last reported at 2017-Dec-20 06:44 UTC. Time now 2018-Jan-21 05:03 UTC.
Position N 30°46' E 032°19'.
Warning: this ship's position is 31 days out of date.

Length 132 m; draft 8.6 m.

Type: Tanker. MMSI: 249598000.

Date/timePositionNaut miles runAvg speedWind from/ knotsBaromVisibWave heightAir tempDewpointWater temp
2017-Dec-20 06:44N 30°46' E 032°19'2 8.9
2017-Dec-20 06:29N 30°48' E 032°19'4 8.8
2017-Dec-20 06:00N 30°52' E 032°19'4 8.6
2017-Dec-20 05:30N 30°56' E 032°19'6 8.8
2017-Dec-20 04:50N 31°02' E 032°19'3 8.9
2017-Dec-20 04:30N 31°05' E 032°19'4 8.4
2017-Dec-20 04:00N 31°09' E 032°19'25 3.2
2017-Dec-19 20:07N 31°33' E 032°11'112.0
2017-Dec-19 20:00N 31°34' E 032°09'38713.0
2017-Dec-18 14:08N 35°33' E 026°04'212.8
2017-Dec-18 14:00N 35°34' E 026°02'612.5
2017-Dec-18 13:31N 35°37' E 025°56'612.7
2017-Dec-18 13:00N 35°41' E 025°50'713.2
2017-Dec-18 12:30N 35°45' E 025°43'713.1
2017-Dec-18 12:00N 35°49' E 025°37'612.9
2017-Dec-18 11:31N 35°52' E 025°30'612.8
2017-Dec-18 11:01N 35°56' E 025°24'612.7
2017-Dec-18 10:30N 35°60' E 025°18'612.6
2017-Dec-18 10:00N 36°03' E 025°11'612.2
2017-Dec-18 09:31N 36°07' E 025°05'611.7
2017-Dec-18 09:01N 36°10' E 024°59'611.8
2017-Dec-18 08:31N 36°13' E 024°53'612.0
2017-Dec-18 08:01N 36°16' E 024°46'611.8
2017-Dec-18 07:31N 36°20' E 024°41'611.6
2017-Dec-18 07:00N 36°23' E 024°35'611.8
2017-Dec-18 06:31N 36°27' E 024°29'612.4
2017-Dec-18 06:01N 36°30' E 024°22'612.4
2017-Dec-18 05:31N 36°34' E 024°16'612.2
2017-Dec-18 05:01N 36°39' E 024°12'612.1
2017-Dec-18 04:31N 36°44' E 024°08'612.0
2017-Dec-18 04:00N 36°50' E 024°04'611.9
2017-Dec-18 03:30N 36°55' E 024°01'611.8
2017-Dec-18 03:01N 36°60' E 023°57'611.8
2017-Dec-18 02:31N 37°05' E 023°53'1312.2
2017-Dec-18 01:25N 37°17' E 023°47'1112.1
2017-Dec-18 00:32N 37°28' E 023°45'012.1
2017-Dec-18 00:30N 37°28' E 023°45'611.9
2017-Dec-18 00:01N 37°34' E 023°44'611.9
2017-Dec-17 23:30N 37°40' E 023°43'612.0
2017-Dec-17 23:00N 37°45' E 023°39'611.5
2017-Dec-17 22:31N 37°50' E 023°35'612.0
2017-Dec-17 22:00N 37°50' E 023°27'612.1
2017-Dec-17 21:30N 37°52' E 023°20'612.3
2017-Dec-17 21:01N 37°53' E 023°12'510.4
2017-Dec-17 20:31N 37°54' E 023°06'1 1.4
2017-Dec-17 19:59N 37°55' E 023°05'0 0.0
2017-Dec-17 19:29N 37°55' E 023°05'0 0.0
2017-Dec-17 18:59N 37°55' E 023°05'0 0.0
2017-Dec-17 18:29N 37°55' E 023°05'0 0.0
2017-Dec-17 17:59N 37°55' E 023°05'0 0.0
2017-Dec-17 17:29N 37°55' E 023°05'0 0.0
2017-Dec-17 16:59N 37°55' E 023°05'0 0.0
2017-Dec-17 16:29N 37°55' E 023°05'0 0.0
2017-Dec-17 15:59N 37°55' E 023°05'0 0.0
2017-Dec-17 15:29N 37°55' E 023°05'0 0.0
2017-Dec-17 14:59N 37°55' E 023°05'0 0.0
2017-Dec-17 14:29N 37°55' E 023°05'0 0.0
2017-Dec-17 13:59N 37°55' E 023°05'0 0.0
2017-Dec-17 13:29N 37°55' E 023°05'0 0.0
2017-Dec-17 12:59N 37°55' E 023°05'0 0.0
2017-Dec-17 12:29N 37°55' E 023°05'0 0.0
2017-Dec-17 11:59N 37°55' E 023°05'0 0.0
2017-Dec-17 11:29N 37°55' E 023°05'0 0.0
2017-Dec-17 10:59N 37°55' E 023°05'0 0.0
2017-Dec-17 10:29N 37°55' E 023°05'0 0.0
2017-Dec-17 09:59N 37°55' E 023°05'0 0.0
2017-Dec-17 09:29N 37°55' E 023°05'0 0.0
2017-Dec-17 08:59N 37°55' E 023°05'0 0.0
2017-Dec-17 08:29N 37°55' E 023°05'0 0.0
2017-Dec-17 07:59N 37°55' E 023°05'0 0.0
2017-Dec-17 07:29N 37°55' E 023°05'0 0.0
2017-Dec-17 06:59N 37°55' E 023°05'0 0.0
2017-Dec-17 06:29N 37°55' E 023°05'0 0.0
2017-Dec-17 05:59N 37°55' E 023°05'0 0.0
2017-Dec-17 05:29N 37°55' E 023°05'0 0.0
2017-Dec-17 04:59N 37°55' E 023°05'0 0.0
2017-Dec-17 04:29N 37°55' E 023°05'0 0.0
2017-Dec-17 03:59N 37°55' E 023°05'0 0.0
2017-Dec-17 03:29N 37°55' E 023°05'0 0.0
2017-Dec-17 02:59N 37°55' E 023°05'0 0.0
2017-Dec-17 02:29N 37°55' E 023°05'0 0.0
2017-Dec-17 01:59N 37°55' E 023°05'0 0.0
2017-Dec-17 01:29N 37°55' E 023°05'0 0.0
2017-Dec-17 00:59N 37°55' E 023°05'0 0.0
2017-Dec-17 00:29N 37°55' E 023°05'0 0.0
2017-Dec-16 23:59N 37°55' E 023°05'0 0.0
2017-Dec-16 23:29N 37°55' E 023°05'0 0.0
2017-Dec-16 22:59N 37°55' E 023°05'0 0.0
2017-Dec-16 22:29N 37°55' E 023°05'0 0.0
2017-Dec-16 21:59N 37°55' E 023°05'0 0.0
2017-Dec-16 21:29N 37°55' E 023°05'0 0.0
2017-Dec-16 20:59N 37°55' E 023°05'0 0.0
2017-Dec-16 20:29N 37°55' E 023°05'0 0.0
2017-Dec-16 19:59N 37°55' E 023°05'0 0.0
2017-Dec-16 19:29N 37°55' E 023°05'0 0.0
2017-Dec-16 18:59N 37°55' E 023°05'0 0.0
2017-Dec-16 18:29N 37°55' E 023°05'0 0.0
2017-Dec-16 17:59N 37°55' E 023°05'0 0.0
2017-Dec-16 17:29N 37°55' E 023°05'0 0.0
2017-Dec-16 16:59N 37°55' E 023°05'0 0.0
2017-Dec-16 16:29N 37°55' E 023°05'0 0.0
2017-Dec-16 15:59N 37°55' E 023°05'0 0.0
2017-Dec-16 15:29N 37°55' E 023°05'0 0.0
2017-Dec-16 14:59N 37°55' E 023°05'0 0.0
2017-Dec-16 14:29N 37°55' E 023°05'0 0.0
2017-Dec-16 13:59N 37°55' E 023°05'0 0.0
2017-Dec-16 13:29N 37°55' E 023°05'0 0.0
2017-Dec-16 12:59N 37°55' E 023°05'0 0.0
2017-Dec-16 12:29N 37°55' E 023°05'0 0.0
2017-Dec-16 11:59N 37°55' E 023°05'0 0.0
2017-Dec-16 11:29N 37°55' E 023°05'0 0.0
2017-Dec-16 10:59N 37°55' E 023°05'0 0.0
2017-Dec-16 10:26N 37°55' E 023°05'0 0.0
2017-Dec-16 09:59N 37°55' E 023°05'0 0.0
2017-Dec-16 09:29N 37°55' E 023°05'0 0.0
2017-Dec-16 08:59N 37°55' E 023°05'0 0.0
2017-Dec-16 08:29N 37°55' E 023°05'0 0.0
2017-Dec-16 07:59N 37°55' E 023°05'0 0.0
2017-Dec-16 07:29N 37°55' E 023°05'0 0.0
2017-Dec-16 06:59N 37°55' E 023°05'0 0.0
2017-Dec-16 06:29N 37°55' E 023°05'0 0.0
2017-Dec-16 05:59N 37°55' E 023°05'0 0.0
2017-Dec-16 05:29N 37°55' E 023°05'0 0.0
2017-Dec-16 04:59N 37°55' E 023°05'0 0.0
2017-Dec-16 04:29N 37°55' E 023°05'0 0.0
2017-Dec-16 03:59N 37°55' E 023°05'0 0.0
2017-Dec-16 03:29N 37°55' E 023°05'0 0.0
2017-Dec-16 02:59N 37°55' E 023°05'0 0.0
2017-Dec-16 02:29N 37°55' E 023°05'0 0.0
2017-Dec-16 01:59N 37°55' E 023°05'0 0.0
2017-Dec-16 01:29N 37°55' E 023°05'0 0.0
2017-Dec-16 00:59N 37°55' E 023°05'0 0.0
2017-Dec-16 00:29N 37°55' E 023°05'0 0.0
2017-Dec-15 23:59N 37°55' E 023°05'0 0.0
2017-Dec-15 23:29N 37°55' E 023°05'0 0.0
2017-Dec-15 22:59N 37°55' E 023°05'0 0.0
2017-Dec-15 22:29N 37°55' E 023°05'0 0.0
2017-Dec-15 21:59N 37°55' E 023°05'0 0.0
2017-Dec-15 21:29N 37°55' E 023°05'0 0.0
2017-Dec-15 20:59N 37°55' E 023°05'0 0.0
2017-Dec-15 20:29N 37°55' E 023°05'0 0.0
2017-Dec-15 19:59N 37°55' E 023°05'0 0.0
2017-Dec-15 19:29N 37°55' E 023°05'0 0.0
2017-Dec-15 18:59N 37°55' E 023°05'1 1.4
2017-Dec-15 18:30N 37°54' E 023°05'2 3.6
2017-Dec-15 18:00N 37°53' E 023°07'611.5
2017-Dec-15 17:30N 37°53' E 023°14'612.5
2017-Dec-15 17:01N 37°51' E 023°22'612.4
2017-Dec-15 16:30N 37°50' E 023°30'612.2
2017-Dec-15 16:01N 37°50' E 023°38'611.4
2017-Dec-15 15:30N 37°46' E 023°42'612.9
2017-Dec-15 15:00N 37°40' E 023°46'713.0
2017-Dec-15 14:30N 37°38' E 023°54'612.8
2017-Dec-15 14:00N 37°36' E 024°01'612.8
2017-Dec-15 13:30N 37°38' E 024°09'712.8
2017-Dec-15 12:57N 37°44' E 024°14'613.1
2017-Dec-15 12:30N 37°48' E 024°20'612.6
2017-Dec-15 11:59N 37°51' E 024°27'612.7
2017-Dec-15 11:30N 37°55' E 024°33'13812.7
2017-Dec-15 00:40N 39°57' E 025°56'13011.6
2017-Dec-14 13:28N 40°53' E 028°30'17 0.9
2017-Dec-13 18:28N 40°57' E 028°52'0 0.2
2017-Dec-13 17:59N 40°57' E 028°52'1 2.1
2017-Dec-13 17:28N 40°56' E 028°52'3 5.9
2017-Dec-13 16:57N 40°54' E 028°56'510.5
2017-Dec-13 16:30N 40°51' E 028°60'510.5
2017-Dec-13 15:59N 40°48' E 029°06'4 8.2
2017-Dec-13 15:30N 40°47' E 029°11'2 4.1
2017-Dec-13 15:00N 40°47' E 029°14'2 3.9
2017-Dec-13 14:30N 40°46' E 029°16'2 5.0
2017-Dec-13 14:00N 40°45' E 029°19'3 5.7
2017-Dec-13 13:28N 40°44' E 029°23'510.0
2017-Dec-13 12:55N 40°45' E 029°30'  
2017-Dec-11 04:59N 40°46' E 029°33'4 0.4
2017-Dec-10 19:58N 40°45' E 029°37'611.7
2017-Dec-10 19:29N 40°45' E 029°30'510.9
2017-Dec-10 19:00N 40°43' E 029°23'4 7.8
2017-Dec-10 18:30N 40°43' E 029°18'611.7
2017-Dec-10 18:01N 40°43' E 029°10'612.8
2017-Dec-10 17:30N 40°43' E 029°02'  
Track history (hours):
 
Tides and Currents Weather Stations Pressure Air Temp Water Temp Dewpoint Dewpoint Depression Visibility Wind Speed Wind Dir Waves Ship Positions

Selenka

Last reported at 2017-Dec-20 06:44 UTC. Time now 2018-Jan-21 05:03 UTC.
Position N 30°46' E 032°19'.
Warning: this ship's position is 31 days out of date.

Length 132 m; draft 8.6 m.

Type: Tanker. MMSI: 249598000.

Date/timePositionNaut miles runAvg speedWind from/ knotsBaromVisibWave heightAir tempDewpointWater temp
2017-Dec-20 06:44N 30°46' E 032°19'2 8.9
2017-Dec-20 06:29N 30°48' E 032°19'4 8.8
2017-Dec-20 06:00N 30°52' E 032°19'4 8.6
2017-Dec-20 05:30N 30°56' E 032°19'6 8.8
2017-Dec-20 04:50N 31°02' E 032°19'3 8.9
2017-Dec-20 04:30N 31°05' E 032°19'4 8.4
2017-Dec-20 04:00N 31°09' E 032°19'25 3.2
2017-Dec-19 20:07N 31°33' E 032°11'112.0
2017-Dec-19 20:00N 31°34' E 032°09'38713.0
2017-Dec-18 14:08N 35°33' E 026°04'212.8
2017-Dec-18 14:00N 35°34' E 026°02'612.5
2017-Dec-18 13:31N 35°37' E 025°56'612.7
2017-Dec-18 13:00N 35°41' E 025°50'713.2
2017-Dec-18 12:30N 35°45' E 025°43'713.1
2017-Dec-18 12:00N 35°49' E 025°37'612.9
2017-Dec-18 11:31N 35°52' E 025°30'612.8
2017-Dec-18 11:01N 35°56' E 025°24'612.7
2017-Dec-18 10:30N 35°60' E 025°18'612.6
2017-Dec-18 10:00N 36°03' E 025°11'612.2
2017-Dec-18 09:31N 36°07' E 025°05'611.7
2017-Dec-18 09:01N 36°10' E 024°59'611.8
2017-Dec-18 08:31N 36°13' E 024°53'612.0
2017-Dec-18 08:01N 36°16' E 024°46'611.8
2017-Dec-18 07:31N 36°20' E 024°41'611.6
2017-Dec-18 07:00N 36°23' E 024°35'611.8
2017-Dec-18 06:31N 36°27' E 024°29'612.4
2017-Dec-18 06:01N 36°30' E 024°22'612.4
2017-Dec-18 05:31N 36°34' E 024°16'612.2
2017-Dec-18 05:01N 36°39' E 024°12'612.1
2017-Dec-18 04:31N 36°44' E 024°08'612.0
2017-Dec-18 04:00N 36°50' E 024°04'611.9
2017-Dec-18 03:30N 36°55' E 024°01'611.8
2017-Dec-18 03:01N 36°60' E 023°57'611.8
2017-Dec-18 02:31N 37°05' E 023°53'1312.2
2017-Dec-18 01:25N 37°17' E 023°47'1112.1
2017-Dec-18 00:32N 37°28' E 023°45'012.1
2017-Dec-18 00:30N 37°28' E 023°45'611.9
2017-Dec-18 00:01N 37°34' E 023°44'611.9
2017-Dec-17 23:30N 37°40' E 023°43'612.0
2017-Dec-17 23:00N 37°45' E 023°39'611.5
2017-Dec-17 22:31N 37°50' E 023°35'612.0
2017-Dec-17 22:00N 37°50' E 023°27'612.1
2017-Dec-17 21:30N 37°52' E 023°20'612.3
2017-Dec-17 21:01N 37°53' E 023°12'510.4
2017-Dec-17 20:31N 37°54' E 023°06'1 1.4
2017-Dec-17 19:59N 37°55' E 023°05'0 0.0
2017-Dec-17 19:29N 37°55' E 023°05'0 0.0
2017-Dec-17 18:59N 37°55' E 023°05'0 0.0
2017-Dec-17 18:29N 37°55' E 023°05'0 0.0
2017-Dec-17 17:59N 37°55' E 023°05'0 0.0
2017-Dec-17 17:29N 37°55' E 023°05'0 0.0
2017-Dec-17 16:59N 37°55' E 023°05'0 0.0
2017-Dec-17 16:29N 37°55' E 023°05'0 0.0
2017-Dec-17 15:59N 37°55' E 023°05'0 0.0
2017-Dec-17 15:29N 37°55' E 023°05'0 0.0
2017-Dec-17 14:59N 37°55' E 023°05'0 0.0
2017-Dec-17 14:29N 37°55' E 023°05'0 0.0
2017-Dec-17 13:59N 37°55' E 023°05'0 0.0
2017-Dec-17 13:29N 37°55' E 023°05'0 0.0
2017-Dec-17 12:59N 37°55' E 023°05'0 0.0
2017-Dec-17 12:29N 37°55' E 023°05'0 0.0
2017-Dec-17 11:59N 37°55' E 023°05'0 0.0
2017-Dec-17 11:29N 37°55' E 023°05'0 0.0
2017-Dec-17 10:59N 37°55' E 023°05'0 0.0
2017-Dec-17 10:29N 37°55' E 023°05'0 0.0
2017-Dec-17 09:59N 37°55' E 023°05'0 0.0
2017-Dec-17 09:29N 37°55' E 023°05'0 0.0
2017-Dec-17 08:59N 37°55' E 023°05'0 0.0
2017-Dec-17 08:29N 37°55' E 023°05'0 0.0
2017-Dec-17 07:59N 37°55' E 023°05'0 0.0
2017-Dec-17 07:29N 37°55' E 023°05'0 0.0
2017-Dec-17 06:59N 37°55' E 023°05'0 0.0
2017-Dec-17 06:29N 37°55' E 023°05'0 0.0
2017-Dec-17 05:59N 37°55' E 023°05'0 0.0
2017-Dec-17 05:29N 37°55' E 023°05'0 0.0
2017-Dec-17 04:59N 37°55' E 023°05'0 0.0
2017-Dec-17 04:29N 37°55' E 023°05'0 0.0
2017-Dec-17 03:59N 37°55' E 023°05'0 0.0
2017-Dec-17 03:29N 37°55' E 023°05'0 0.0
2017-Dec-17 02:59N 37°55' E 023°05'0 0.0
2017-Dec-17 02:29N 37°55' E 023°05'0 0.0
2017-Dec-17 01:59N 37°55' E 023°05'0 0.0
2017-Dec-17 01:29N 37°55' E 023°05'0 0.0
2017-Dec-17 00:59N 37°55' E 023°05'0 0.0
2017-Dec-17 00:29N 37°55' E 023°05'0 0.0
2017-Dec-16 23:59N 37°55' E 023°05'0 0.0
2017-Dec-16 23:29N 37°55' E 023°05'0 0.0
2017-Dec-16 22:59N 37°55' E 023°05'0 0.0
2017-Dec-16 22:29N 37°55' E 023°05'0 0.0
2017-Dec-16 21:59N 37°55' E 023°05'0 0.0
2017-Dec-16 21:29N 37°55' E 023°05'0 0.0
2017-Dec-16 20:59N 37°55' E 023°05'0 0.0
2017-Dec-16 20:29N 37°55' E 023°05'0 0.0
2017-Dec-16 19:59N 37°55' E 023°05'0 0.0
2017-Dec-16 19:29N 37°55' E 023°05'0 0.0
2017-Dec-16 18:59N 37°55' E 023°05'0 0.0
2017-Dec-16 18:29N 37°55' E 023°05'0 0.0
2017-Dec-16 17:59N 37°55' E 023°05'0 0.0
2017-Dec-16 17:29N 37°55' E 023°05'0 0.0
2017-Dec-16 16:59N 37°55' E 023°05'0 0.0
2017-Dec-16 16:29N 37°55' E 023°05'0 0.0
2017-Dec-16 15:59N 37°55' E 023°05'0 0.0
2017-Dec-16 15:29N 37°55' E 023°05'0 0.0
2017-Dec-16 14:59N 37°55' E 023°05'0 0.0
2017-Dec-16 14:29N 37°55' E 023°05'0 0.0
2017-Dec-16 13:59N 37°55' E 023°05'0 0.0
2017-Dec-16 13:29N 37°55' E 023°05'0 0.0
2017-Dec-16 12:59N 37°55' E 023°05'0 0.0
2017-Dec-16 12:29N 37°55' E 023°05'0 0.0
2017-Dec-16 11:59N 37°55' E 023°05'0 0.0
2017-Dec-16 11:29N 37°55' E 023°05'0 0.0
2017-Dec-16 10:59N 37°55' E 023°05'0 0.0
2017-Dec-16 10:26N 37°55' E 023°05'0 0.0
2017-Dec-16 09:59N 37°55' E 023°05'0 0.0
2017-Dec-16 09:29N 37°55' E 023°05'0 0.0
2017-Dec-16 08:59N 37°55' E 023°05'0 0.0
2017-Dec-16 08:29N 37°55' E 023°05'0 0.0
2017-Dec-16 07:59N 37°55' E 023°05'0 0.0
2017-Dec-16 07:29N 37°55' E 023°05'0 0.0
2017-Dec-16 06:59N 37°55' E 023°05'0 0.0
2017-Dec-16 06:29N 37°55' E 023°05'0 0.0
2017-Dec-16 05:59N 37°55' E 023°05'0 0.0
2017-Dec-16 05:29N 37°55' E 023°05'0 0.0
2017-Dec-16 04:59N 37°55' E 023°05'0 0.0
2017-Dec-16 04:29N 37°55' E 023°05'0 0.0
2017-Dec-16 03:59N 37°55' E 023°05'0 0.0
2017-Dec-16 03:29N 37°55' E 023°05'0 0.0
2017-Dec-16 02:59N 37°55' E 023°05'0 0.0
2017-Dec-16 02:29N 37°55' E 023°05'0 0.0
2017-Dec-16 01:59N 37°55' E 023°05'0 0.0
2017-Dec-16 01:29N 37°55' E 023°05'0 0.0
2017-Dec-16 00:59N 37°55' E 023°05'0 0.0
2017-Dec-16 00:29N 37°55' E 023°05'0 0.0
2017-Dec-15 23:59N 37°55' E 023°05'0 0.0
2017-Dec-15 23:29N 37°55' E 023°05'0 0.0
2017-Dec-15 22:59N 37°55' E 023°05'0 0.0
2017-Dec-15 22:29N 37°55' E 023°05'0 0.0
2017-Dec-15 21:59N 37°55' E 023°05'0 0.0
2017-Dec-15 21:29N 37°55' E 023°05'0 0.0
2017-Dec-15 20:59N 37°55' E 023°05'0 0.0
2017-Dec-15 20:29N 37°55' E 023°05'0 0.0
2017-Dec-15 19:59N 37°55' E 023°05'0 0.0
2017-Dec-15 19:29N 37°55' E 023°05'0 0.0
2017-Dec-15 18:59N 37°55' E 023°05'1 1.4
2017-Dec-15 18:30N 37°54' E 023°05'2 3.6
2017-Dec-15 18:00N 37°53' E 023°07'611.5
2017-Dec-15 17:30N 37°53' E 023°14'612.5
2017-Dec-15 17:01N 37°51' E 023°22'612.4
2017-Dec-15 16:30N 37°50' E 023°30'612.2
2017-Dec-15 16:01N 37°50' E 023°38'611.4
2017-Dec-15 15:30N 37°46' E 023°42'612.9
2017-Dec-15 15:00N 37°40' E 023°46'713.0
2017-Dec-15 14:30N 37°38' E 023°54'612.8
2017-Dec-15 14:00N 37°36' E 024°01'612.8
2017-Dec-15 13:30N 37°38' E 024°09'712.8
2017-Dec-15 12:57N 37°44' E 024°14'613.1
2017-Dec-15 12:30N 37°48' E 024°20'612.6
2017-Dec-15 11:59N 37°51' E 024°27'612.7
2017-Dec-15 11:30N 37°55' E 024°33'13812.7
2017-Dec-15 00:40N 39°57' E 025°56'13011.6
2017-Dec-14 13:28N 40°53' E 028°30'17 0.9
2017-Dec-13 18:28N 40°57' E 028°52'0 0.2
2017-Dec-13 17:59N 40°57' E 028°52'1 2.1
2017-Dec-13 17:28N 40°56' E 028°52'3 5.9
2017-Dec-13 16:57N 40°54' E 028°56'510.5
2017-Dec-13 16:30N 40°51' E 028°60'510.5
2017-Dec-13 15:59N 40°48' E 029°06'4 8.2
2017-Dec-13 15:30N 40°47' E 029°11'2 4.1
2017-Dec-13 15:00N 40°47' E 029°14'2 3.9
2017-Dec-13 14:30N 40°46' E 029°16'2 5.0
2017-Dec-13 14:00N 40°45' E 029°19'3 5.7
2017-Dec-13 13:28N 40°44' E 029°23'510.0
2017-Dec-13 12:55N 40°45' E 029°30'  
2017-Dec-11 04:59N 40°46' E 029°33'4 0.4
2017-Dec-10 19:58N 40°45' E 029°37'611.7
2017-Dec-10 19:29N 40°45' E 029°30'510.9
2017-Dec-10 19:00N 40°43' E 029°23'4 7.8
2017-Dec-10 18:30N 40°43' E 029°18'611.7
2017-Dec-10 18:01N 40°43' E 029°10'612.8
2017-Dec-10 17:30N 40°43' E 029°02'  

Dump ship's entire track history